Main page
METAR-TAF:

METAR-TAF

Airports :

Stornoway Airport

Stornoway, Scotland

latitude: 58-13N, longitude: 006-19W, elevation: 9 m

Current weather observation

The report was made 30 minutes ago, at 20:50 UTC
Wind 4 kt from the Southwest
Temperature 9°C
Humidity 93%
Pressure 995 hPa
Visibility 10 km or more

METAR: EGPO 202050Z AUTO 23004KT 9999 BKN041/// 09/08 Q0995

Time: 22:20 (21:20 UTC)

Forecast

The report was made 1 hour and 22 minutes ago, at 19:58 UTC
Forecast valid from 20 at 21 UTC to 21 at 06 UTC
Wind 8 kt from the Southwest
Visibility 10 km or more
Scattered clouds at a height of 2500 ft
Temporary
from 20 at 21 UTC to 21 at 06 UTC
Visibility: 6000 m
rain showers
Probability 30% :
Temporary
from 20 at 21 UTC to 21 at 06 UTC
Visibility: 3000 m
Broken clouds at a height of 1400 ft
heavy rain showers
Becoming
from 21 at 00 UTC to 21 at 03 UTC
Wind 12 kt from the North/Northwest

TAF: EGPO 201958Z 2021/2106 22008KT 9999 SCT025 TEMPO 2021/2106 6000 SHRA PROB30 TEMPO 2021/2106 3000 +SHRA BKN014 BECMG 2100/2103 34012KT

Weather observations and forecasts of more than 4000 airports (METAR and TAF reports).

The available stations are represented by yellow and red dots on the map.

Hover mouse over dot to see the name of the station.

Then click to see weather observations and forecasts.

To change the map : click on the green buttons with a black cross to zoom in, on the green button with a dash to zoom out, or on the green arrows for adjacent maps.


METAR-TAF: